createdAt,value
2018-10-18T00:00:18.068Z,39.40
2018-10-18T00:01:17.943Z,45.50
2018-10-18T00:02:18.015Z,47.50
2018-10-18T00:03:17.885Z,41.00
2018-10-18T00:04:17.854Z,38.50
2018-10-18T00:05:17.834Z,40.00
2018-10-18T00:06:17.904Z,43.30
2018-10-18T00:07:17.771Z,42.20
2018-10-18T00:08:17.858Z,42.30
2018-10-18T00:09:17.716Z,39.80
2018-10-18T00:10:17.687Z,41.80
2018-10-18T00:11:17.658Z,43.70
2018-10-18T00:12:17.696Z,41.20
2018-10-18T00:13:17.605Z,41.60
2018-10-18T00:14:17.658Z,41.50
2018-10-18T00:15:17.548Z,41.30
2018-10-18T00:16:17.520Z,40.40
2018-10-18T00:17:17.493Z,42.30
2018-10-18T00:18:17.503Z,43.30
2018-10-18T00:19:17.437Z,43.50
2018-10-18T00:20:17.408Z,42.40
2018-10-18T00:21:17.381Z,40.00
2018-10-18T00:22:17.351Z,43.20
2018-10-18T00:23:17.324Z,44.30
2018-10-18T00:24:17.332Z,42.90
2018-10-18T00:25:17.270Z,45.20
2018-10-18T00:26:17.275Z,46.20
2018-10-18T00:27:17.213Z,44.10
2018-10-18T00:28:17.186Z,41.00
2018-10-18T00:29:17.158Z,40.50
2018-10-18T00:30:17.228Z,41.90
2018-10-18T00:31:17.104Z,41.40
2018-10-18T00:32:17.089Z,39.70
2018-10-18T00:33:17.047Z,39.20
2018-10-18T00:34:17.016Z,41.80
2018-10-18T00:35:16.994Z,41.20
2018-10-18T00:36:17.090Z,40.80
2018-10-18T00:37:16.933Z,41.00
2018-10-18T00:38:17.007Z,41.40
2018-10-18T00:39:16.877Z,42.20
2018-10-18T00:40:16.852Z,39.90
2018-10-18T00:41:16.821Z,41.20
2018-10-18T00:42:16.917Z,41.80
2018-10-18T00:43:16.765Z,42.20
2018-10-18T00:44:16.857Z,45.30
2018-10-18T00:45:16.710Z,42.80
2018-10-18T00:46:16.682Z,41.20
2018-10-18T00:47:16.655Z,41.50
2018-10-18T00:48:16.715Z,41.20
2018-10-18T00:49:16.598Z,47.90
2018-10-18T00:50:16.590Z,48.10
2018-10-18T00:51:16.543Z,47.90
2018-10-18T00:52:16.514Z,48.10
2018-10-18T00:53:16.486Z,45.60
2018-10-18T00:54:16.526Z,45.90
2018-10-18T00:55:16.431Z,44.90
2018-10-18T00:56:16.439Z,41.90
2018-10-18T00:57:16.373Z,45.10
2018-10-18T00:58:16.345Z,41.10
2018-10-18T00:59:16.317Z,41.40
2018-10-18T01:00:16.362Z,41.00
2018-10-18T01:01:16.263Z,42.50
2018-10-18T01:02:16.305Z,41.40
2018-10-18T01:03:16.205Z,43.10
2018-10-18T01:04:16.179Z,42.90
2018-10-18T01:05:16.155Z,44.10
2018-10-18T01:06:16.231Z,45.30
2018-10-18T01:07:16.094Z,45.60
2018-10-18T01:08:16.168Z,41.10
2018-10-18T01:09:16.038Z,44.10
2018-10-18T01:10:16.008Z,43.40
2018-10-18T01:11:15.983Z,45.10
2018-10-18T01:12:16.138Z,43.40
2018-10-18T01:13:15.927Z,42.30
2018-10-18T01:14:15.972Z,43.40
2018-10-18T01:15:15.871Z,41.80
2018-10-18T01:16:15.841Z,40.10
2018-10-18T01:17:15.813Z,45.10
2018-10-18T01:18:15.874Z,43.40
2018-10-18T01:19:15.757Z,47.60
2018-10-18T01:20:15.856Z,46.70
2018-10-18T01:21:15.699Z,44.40
2018-10-18T01:22:15.672Z,43.40
2018-10-18T01:23:15.643Z,46.30
2018-10-18T01:24:15.753Z,43.50
2018-10-18T01:25:15.589Z,41.10
2018-10-18T01:26:15.655Z,42.30
2018-10-18T01:27:15.533Z,41.90
2018-10-18T01:28:15.503Z,45.40
2018-10-18T01:29:15.475Z,49.20
2018-10-18T01:30:15.532Z,46.50
2018-10-18T01:31:15.418Z,46.00
2018-10-18T01:32:15.446Z,44.40
2018-10-18T01:33:15.361Z,47.70
2018-10-18T01:34:15.334Z,51.80
2018-10-18T01:35:15.304Z,47.50
2018-10-18T01:36:15.396Z,49.60
2018-10-18T01:37:15.250Z,49.50
2018-10-18T01:38:15.258Z,46.30
2018-10-18T01:39:15.197Z,43.60
2018-10-18T01:40:15.165Z,44.40
2018-10-18T01:41:15.137Z,52.10
2018-10-18T01:42:15.193Z,49.70
2018-10-18T01:43:15.080Z,50.90
2018-10-18T01:44:15.208Z,51.60
2018-10-18T01:45:15.024Z,51.60
2018-10-18T01:46:14.995Z,53.20
2018-10-18T01:47:14.966Z,51.70
2018-10-18T01:48:15.034Z,48.30
2018-10-18T01:49:14.910Z,50.60
2018-10-18T01:50:14.975Z,49.40
2018-10-18T01:51:14.852Z,55.90
2018-10-18T01:52:14.825Z,52.20
2018-10-18T01:53:14.798Z,50.30
2018-10-18T01:54:14.877Z,50.90
2018-10-18T01:55:14.741Z,52.70
2018-10-18T01:56:14.820Z,52.90
2018-10-18T01:57:14.686Z,53.80
2018-10-18T01:58:14.659Z,51.40
2018-10-18T01:59:14.627Z,59.40
2018-10-18T02:00:14.665Z,51.80
2018-10-18T02:01:14.571Z,52.80
2018-10-18T02:02:14.707Z,65.70
2018-10-18T02:03:14.515Z,55.80
2018-10-18T02:04:14.486Z,65.80
2018-10-18T02:05:14.457Z,61.10
2018-10-18T02:06:14.499Z,57.60
2018-10-18T02:07:14.402Z,62.40
2018-10-18T02:08:14.395Z,61.70
2018-10-18T02:09:14.346Z,61.40
2018-10-18T02:10:14.324Z,61.70
2018-10-18T02:11:14.288Z,69.20
2018-10-18T02:12:14.347Z,75.10
2018-10-18T02:13:14.233Z,72.50
2018-10-18T02:14:14.205Z,83.70
2018-10-18T02:15:14.176Z,71.40
2018-10-18T02:16:14.149Z,76.10
2018-10-18T02:17:14.119Z,71.80
2018-10-18T02:18:14.216Z,69.60
2018-10-18T02:19:14.153Z,70.10
2018-10-18T02:20:14.035Z,75.20
2018-10-18T02:21:14.007Z,70.60
2018-10-18T02:22:13.980Z,77.60
2018-10-18T02:23:13.950Z,98.20
2018-10-18T02:24:14.000Z,147.20
2018-10-18T02:25:13.972Z,109.40
2018-10-18T02:26:13.868Z,102.80
2018-10-18T02:27:13.839Z,114.60
2018-10-18T02:28:13.812Z,157.20
2018-10-18T02:29:13.784Z,163.50
2018-10-18T02:30:13.764Z,168.40
2018-10-18T02:31:13.728Z,180.00
2018-10-18T02:32:13.701Z,189.80
2018-10-18T02:33:13.674Z,190.90
2018-10-18T02:34:13.646Z,193.40
2018-10-18T02:35:13.618Z,187.30
2018-10-18T02:36:13.624Z,183.80
2018-10-18T02:37:13.565Z,197.20
2018-10-18T02:38:13.536Z,209.50
2018-10-18T02:39:13.510Z,206.60
2018-10-18T02:40:13.481Z,225.20
2018-10-18T02:41:13.455Z,193.50
2018-10-18T02:42:13.513Z,196.90
2018-10-18T02:43:13.402Z,203.40
2018-10-18T02:44:13.376Z,219.20
2018-10-18T02:45:13.351Z,233.50
2018-10-18T02:46:13.320Z,213.30
2018-10-18T02:47:13.293Z,195.20
2018-10-18T02:48:13.347Z,212.50
2018-10-18T02:49:13.244Z,211.10
2018-10-18T02:50:13.213Z,187.50
2018-10-18T02:51:13.186Z,232.30
2018-10-18T02:52:13.160Z,220.40
2018-10-18T02:53:13.136Z,215.30
2018-10-18T02:54:13.131Z,198.40
2018-10-18T02:55:13.078Z,194.70
2018-10-18T02:56:13.054Z,187.00
2018-10-18T02:57:13.027Z,228.50
2018-10-18T02:58:13.006Z,226.90
2018-10-18T02:59:12.975Z,193.30
2018-10-18T03:00:13.083Z,186.70
2018-10-18T03:01:12.920Z,203.80
2018-10-18T03:02:12.894Z,208.30
2018-10-18T03:03:12.869Z,216.40
2018-10-18T03:04:12.840Z,201.90
2018-10-18T03:05:12.816Z,209.60
2018-10-18T03:06:12.869Z,223.80
2018-10-18T03:07:12.767Z,220.90
2018-10-18T03:08:12.735Z,200.70
2018-10-18T03:09:12.710Z,214.50
2018-10-18T03:10:12.682Z,218.20
2018-10-18T03:11:12.657Z,213.80
2018-10-18T03:12:12.658Z,217.80
2018-10-18T03:13:12.604Z,203.90
2018-10-18T03:14:12.577Z,208.80
2018-10-18T03:15:12.552Z,207.80
2018-10-18T03:16:12.623Z,189.80
2018-10-18T03:17:12.499Z,192.00
2018-10-18T03:18:12.537Z,188.10
2018-10-18T03:19:12.448Z,223.90
2018-10-18T03:20:12.420Z,211.40
2018-10-18T03:21:12.398Z,195.40
2018-10-18T03:22:12.367Z,198.80
2018-10-18T03:23:12.342Z,187.70
2018-10-18T03:24:12.361Z,199.40
2018-10-18T03:25:12.289Z,222.80
2018-10-18T03:26:12.264Z,187.10
2018-10-18T03:27:12.240Z,196.50
2018-10-18T03:28:12.211Z,220.50
2018-10-18T03:29:12.195Z,195.70
2018-10-18T03:30:12.286Z,182.00
2018-10-18T03:31:12.136Z,173.90
2018-10-18T03:32:12.114Z,190.50
2018-10-18T03:33:12.086Z,181.40
2018-10-18T03:34:12.058Z,189.60
2018-10-18T03:35:12.028Z,210.40
2018-10-18T03:36:12.033Z,201.80
2018-10-18T03:37:11.977Z,174.70
2018-10-18T03:38:11.950Z,176.50
2018-10-18T03:39:11.929Z,195.70
2018-10-18T03:40:11.900Z,201.20
2018-10-18T03:41:11.872Z,205.50
2018-10-18T03:42:11.934Z,204.80
2018-10-18T03:43:11.820Z,188.10
2018-10-18T03:44:11.797Z,202.20
2018-10-18T03:45:11.769Z,203.90
2018-10-18T03:46:11.742Z,174.30
2018-10-18T03:47:11.716Z,207.80
2018-10-18T03:48:11.761Z,192.40
2018-10-18T03:49:11.665Z,187.40
2018-10-18T03:50:11.640Z,200.40
2018-10-18T03:51:11.613Z,188.70
2018-10-18T03:52:11.588Z,188.20
2018-10-18T03:53:11.561Z,183.60
2018-10-18T03:54:11.652Z,185.20
2018-10-18T03:55:11.514Z,191.00
2018-10-18T03:56:11.484Z,210.40
2018-10-18T03:57:11.466Z,201.10
2018-10-18T03:58:11.433Z,208.50
2018-10-18T03:59:11.407Z,178.40
2018-10-18T04:00:11.459Z,194.30
2018-10-18T04:01:11.355Z,195.40
2018-10-18T04:02:11.329Z,177.40
2018-10-18T04:03:11.303Z,194.60
2018-10-18T04:04:11.279Z,178.50
2018-10-18T04:05:11.253Z,180.30
2018-10-18T04:06:11.241Z,175.40
2018-10-18T04:07:11.201Z,184.50
2018-10-18T04:08:11.175Z,191.60
2018-10-18T04:09:11.148Z,185.90
2018-10-18T04:10:11.124Z,199.50
2018-10-18T04:11:11.098Z,197.60
2018-10-18T04:12:11.187Z,191.40
2018-10-18T04:13:11.054Z,191.30
2018-10-18T04:14:11.020Z,221.40
2018-10-18T04:15:10.994Z,212.40
2018-10-18T04:16:10.968Z,184.30
2018-10-18T04:17:10.943Z,208.70
2018-10-18T04:18:11.015Z,210.60
2018-10-18T04:19:10.892Z,179.20
2018-10-18T04:20:10.878Z,217.50
2018-10-18T04:21:10.842Z,215.90
2018-10-18T04:22:10.815Z,214.00
2018-10-18T04:23:10.788Z,209.80
2018-10-18T04:24:10.842Z,201.20
2018-10-18T04:25:10.738Z,191.40
2018-10-18T04:26:10.712Z,213.30
2018-10-18T04:27:10.690Z,169.20
2018-10-18T04:28:10.661Z,185.90
2018-10-18T04:29:10.636Z,212.00
2018-10-18T04:30:10.626Z,183.30
2018-10-18T04:31:10.586Z,202.60
2018-10-18T04:32:10.560Z,196.70
2018-10-18T04:33:10.533Z,169.30
2018-10-18T04:34:10.508Z,172.90
2018-10-18T04:35:10.483Z,173.90
2018-10-18T04:36:10.506Z,180.20
2018-10-18T04:37:10.434Z,156.30
2018-10-18T04:38:10.406Z,169.00
2018-10-18T04:39:10.380Z,168.20
2018-10-18T04:40:10.355Z,147.60
2018-10-18T04:41:10.329Z,159.80
2018-10-18T04:42:10.359Z,158.40
2018-10-18T04:43:10.278Z,170.40
2018-10-18T04:44:10.253Z,162.10
2018-10-18T04:45:10.227Z,168.60
2018-10-18T04:46:10.199Z,159.70
2018-10-18T04:47:10.196Z,158.20
2018-10-18T04:48:10.159Z,165.20
2018-10-18T04:49:10.124Z,164.60
2018-10-18T04:50:10.098Z,157.30
2018-10-18T04:51:10.073Z,156.90
2018-10-18T04:52:10.047Z,163.60
2018-10-18T04:53:10.021Z,160.50
2018-10-18T04:54:09.995Z,146.70
2018-10-18T04:55:10.009Z,143.70
2018-10-18T04:56:09.944Z,135.90
2018-10-18T04:57:09.923Z,138.00
2018-10-18T04:58:09.893Z,145.10
2018-10-18T04:59:09.866Z,136.50
2018-10-18T05:00:09.842Z,131.70
2018-10-18T05:01:09.915Z,138.30
2018-10-18T05:02:09.790Z,127.40
2018-10-18T05:03:09.763Z,135.10
2018-10-18T05:04:09.737Z,132.30
2018-10-18T05:05:09.716Z,122.60
2018-10-18T05:06:09.686Z,130.50
2018-10-18T05:07:09.697Z,135.50
2018-10-18T05:08:09.637Z,150.30
2018-10-18T05:09:09.613Z,139.80
2018-10-18T05:10:09.584Z,135.40
2018-10-18T05:11:09.590Z,134.00
2018-10-18T05:12:09.533Z,129.10
2018-10-18T05:13:09.628Z,130.70
2018-10-18T05:14:09.484Z,136.10
2018-10-18T05:15:09.457Z,131.80
2018-10-18T05:16:09.431Z,125.90
2018-10-18T05:17:09.405Z,122.50
2018-10-18T05:18:09.379Z,126.20
2018-10-18T05:19:09.369Z,131.70
2018-10-18T05:20:09.328Z,130.70
2018-10-18T05:21:09.304Z,122.40
2018-10-18T05:22:09.278Z,121.60
2018-10-18T05:23:09.255Z,129.90
2018-10-18T05:24:09.229Z,127.10
2018-10-18T05:25:09.392Z,115.20
2018-10-18T05:26:09.175Z,100.00
2018-10-18T05:27:09.152Z,124.00
2018-10-18T05:28:09.125Z,120.70
2018-10-18T05:29:09.101Z,119.30
2018-10-18T05:30:09.074Z,125.40
2018-10-18T05:31:09.095Z,126.70
2018-10-18T05:32:09.023Z,124.10
2018-10-18T05:33:08.997Z,121.80
2018-10-18T05:34:08.973Z,115.30
2018-10-18T05:35:08.947Z,118.10
2018-10-18T05:36:08.922Z,121.00
2018-10-18T05:37:08.928Z,120.60
2018-10-18T05:38:08.871Z,111.00
2018-10-18T05:39:08.846Z,114.00
2018-10-18T05:40:08.821Z,108.90
2018-10-18T05:41:08.795Z,103.10
2018-10-18T05:42:08.769Z,113.30
2018-10-18T05:43:08.840Z,110.20
2018-10-18T05:44:08.719Z,114.30
2018-10-18T05:45:08.695Z,112.50
2018-10-18T05:46:08.668Z,113.50
2018-10-18T05:47:08.701Z,109.90
2018-10-18T05:48:08.618Z,114.20
2018-10-18T05:49:08.690Z,116.50
2018-10-18T05:50:08.566Z,110.10
2018-10-18T05:51:08.540Z,94.80
2018-10-18T05:52:08.515Z,93.80
2018-10-18T05:53:08.636Z,94.80
2018-10-18T05:54:08.576Z,96.10
2018-10-18T05:55:08.538Z,97.10
2018-10-18T05:56:08.414Z,94.10
2018-10-18T05:57:08.389Z,100.90
2018-10-18T05:58:08.367Z,99.50
2018-10-18T05:59:08.343Z,94.80
2018-10-18T06:00:08.352Z,91.80
2018-10-18T06:01:08.374Z,94.30
2018-10-18T06:02:08.263Z,93.50
2018-10-18T06:03:08.236Z,97.30
2018-10-18T06:04:08.212Z,99.70
2018-10-18T06:05:08.190Z,102.50
2018-10-18T06:06:08.162Z,98.10
2018-10-18T06:07:08.224Z,90.40
2018-10-18T06:08:08.120Z,97.30
2018-10-18T06:09:08.087Z,95.10
2018-10-18T06:10:08.118Z,93.40
2018-10-18T06:11:08.036Z,94.90
2018-10-18T06:12:08.011Z,92.70
2018-10-18T06:13:08.062Z,86.20
2018-10-18T06:14:07.960Z,88.90
2018-10-18T06:15:07.936Z,90.80
2018-10-18T06:16:07.912Z,88.40
2018-10-18T06:17:07.885Z,92.80
2018-10-18T06:18:07.861Z,89.00
2018-10-18T06:19:07.873Z,90.90
2018-10-18T06:20:07.810Z,86.00
2018-10-18T06:21:07.785Z,82.40
2018-10-18T06:22:07.767Z,81.50
2018-10-18T06:23:07.795Z,81.80
2018-10-18T06:24:07.710Z,84.40
2018-10-18T06:25:07.771Z,85.30
2018-10-18T06:26:07.661Z,80.30
2018-10-18T06:27:07.637Z,78.30
2018-10-18T06:28:07.609Z,74.00
2018-10-18T06:29:07.601Z,69.70
2018-10-18T06:30:07.559Z,73.30
2018-10-18T06:31:07.580Z,70.70
2018-10-18T06:32:07.511Z,74.60
2018-10-18T06:33:07.609Z,68.80
2018-10-18T06:34:07.460Z,65.60
2018-10-18T06:35:07.503Z,69.50
2018-10-18T06:36:07.411Z,72.70
2018-10-18T06:37:07.458Z,68.60
2018-10-18T06:38:07.362Z,69.60
2018-10-18T06:39:07.347Z,69.30
2018-10-18T06:40:07.312Z,67.40
2018-10-18T06:41:07.366Z,69.10
2018-10-18T06:42:07.265Z,67.10
2018-10-18T06:43:07.333Z,67.80
2018-10-18T06:44:07.215Z,66.70
2018-10-18T06:45:07.188Z,68.80
2018-10-18T06:46:07.161Z,63.60
2018-10-18T06:47:07.247Z,68.90
2018-10-18T06:48:07.186Z,69.00
2018-10-18T06:49:07.194Z,73.10
2018-10-18T06:50:07.063Z,74.30
2018-10-18T06:51:07.040Z,72.20
2018-10-18T06:52:07.017Z,73.10
2018-10-18T06:53:06.990Z,74.70
2018-10-18T06:54:06.981Z,73.80
2018-10-18T06:55:06.961Z,74.00
2018-10-18T06:56:06.915Z,71.00
2018-10-18T06:57:06.890Z,67.10
2018-10-18T06:58:06.866Z,64.70
2018-10-18T06:59:06.842Z,64.70
2018-10-18T07:00:06.850Z,60.70
2018-10-18T07:01:06.790Z,59.00
2018-10-18T07:02:06.766Z,59.00
2018-10-18T07:03:06.740Z,59.60
2018-10-18T07:04:06.721Z,57.10
2018-10-18T07:05:06.697Z,58.20
2018-10-18T07:06:06.779Z,61.10
2018-10-18T07:07:06.641Z,58.90
2018-10-18T07:08:06.617Z,55.20
2018-10-18T07:09:06.593Z,54.50
2018-10-18T07:10:06.568Z,51.60
2018-10-18T07:11:06.611Z,55.80
2018-10-18T07:12:06.584Z,56.90
2018-10-18T07:13:06.507Z,54.70
2018-10-18T07:14:06.469Z,54.80
2018-10-18T07:15:06.444Z,54.80
2018-10-18T07:16:06.420Z,56.20
2018-10-18T07:17:06.397Z,54.70
2018-10-18T07:18:06.455Z,54.30
2018-10-18T07:19:06.345Z,53.90
2018-10-18T07:20:06.322Z,51.90
2018-10-18T07:21:06.298Z,52.40
2018-10-18T07:22:06.272Z,52.70
2018-10-18T07:23:06.249Z,53.70
2018-10-18T07:24:06.283Z,54.30
2018-10-18T07:25:06.215Z,51.90
2018-10-18T07:26:06.175Z,52.30
2018-10-18T07:27:06.149Z,52.50
2018-10-18T07:28:06.127Z,48.00
2018-10-18T07:29:06.104Z,50.50
2018-10-18T07:30:06.141Z,50.50
2018-10-18T07:31:06.054Z,51.50
2018-10-18T07:32:06.029Z,51.70
2018-10-18T07:33:06.005Z,53.70
2018-10-18T07:34:05.980Z,52.70
2018-10-18T07:35:06.013Z,51.60
2018-10-18T07:36:05.995Z,51.10
2018-10-18T07:37:05.912Z,50.50
2018-10-18T07:38:05.885Z,50.60
2018-10-18T07:39:05.859Z,49.30
2018-10-18T07:40:05.836Z,47.70
2018-10-18T07:41:05.819Z,48.70
2018-10-18T07:42:05.868Z,46.00
2018-10-18T07:43:05.763Z,47.10
2018-10-18T07:44:05.740Z,48.90
2018-10-18T07:45:05.715Z,49.70
2018-10-18T07:46:05.692Z,47.90
2018-10-18T07:47:05.669Z,48.90
2018-10-18T07:48:05.738Z,46.60
2018-10-18T07:49:05.621Z,45.90
2018-10-18T07:50:05.596Z,44.30
2018-10-18T07:51:05.574Z,45.40
2018-10-18T07:52:05.547Z,45.80
2018-10-18T07:53:05.541Z,45.40
2018-10-18T07:54:05.574Z,46.90
2018-10-18T07:55:05.478Z,45.10
2018-10-18T07:56:05.452Z,43.50
2018-10-18T07:57:05.431Z,41.80
2018-10-18T07:58:05.405Z,46.20
2018-10-18T07:59:05.420Z,44.90
2018-10-18T08:00:05.513Z,46.70
2018-10-18T08:01:05.332Z,44.70
2018-10-18T08:02:05.306Z,43.40
2018-10-18T08:03:05.282Z,43.90
2018-10-18T08:04:05.259Z,44.40
2018-10-18T08:05:05.235Z,45.80
2018-10-18T08:06:05.210Z,45.80
2018-10-18T08:07:05.200Z,45.80
2018-10-18T08:08:05.165Z,44.00
2018-10-18T08:09:05.139Z,45.40
2018-10-18T08:10:05.128Z,45.90
2018-10-18T08:11:05.177Z,44.30
2018-10-18T08:12:05.067Z,43.50
2018-10-18T08:13:05.089Z,43.20
2018-10-18T08:14:05.018Z,44.60
2018-10-18T08:15:04.994Z,46.30
2018-10-18T08:16:04.970Z,45.20
2018-10-18T08:17:05.096Z,45.20
2018-10-18T08:18:04.923Z,46.00
2018-10-18T08:19:04.994Z,42.60
2018-10-18T08:20:04.872Z,46.20
2018-10-18T08:21:04.850Z,46.90
2018-10-18T08:22:04.823Z,47.60
2018-10-18T08:23:04.799Z,47.50
2018-10-18T08:24:04.776Z,45.90
2018-10-18T08:25:04.782Z,47.20
2018-10-18T08:26:04.726Z,44.40
2018-10-18T08:27:04.701Z,45.10
2018-10-18T08:28:04.677Z,45.50
2018-10-18T08:29:04.654Z,44.20
2018-10-18T08:30:04.629Z,45.30
2018-10-18T08:31:04.681Z,45.70
2018-10-18T08:32:04.581Z,47.80
2018-10-18T08:33:04.560Z,46.90
2018-10-18T08:34:04.583Z,45.10
2018-10-18T08:35:04.507Z,44.00
2018-10-18T08:36:04.485Z,43.30
2018-10-18T08:37:04.467Z,41.20
2018-10-18T08:38:04.587Z,45.20
2018-10-18T08:39:04.410Z,43.40
2018-10-18T08:40:04.386Z,44.30
2018-10-18T08:41:04.363Z,42.70
2018-10-18T08:42:04.340Z,42.10
2018-10-18T08:43:04.370Z,38.30
2018-10-18T08:44:04.466Z,41.70
2018-10-18T08:45:04.267Z,42.50
2018-10-18T08:46:04.241Z,42.30
2018-10-18T08:47:04.220Z,41.30
2018-10-18T08:48:04.197Z,43.30
2018-10-18T08:49:04.221Z,43.30
2018-10-18T08:50:04.311Z,43.30
2018-10-18T08:51:04.123Z,42.90
2018-10-18T08:52:04.101Z,42.10
2018-10-18T08:53:04.076Z,43.00
2018-10-18T08:54:04.050Z,41.10
2018-10-18T08:55:04.044Z,42.00
2018-10-18T08:56:04.007Z,42.30
2018-10-18T08:57:03.981Z,41.00
2018-10-18T08:58:03.957Z,40.70
2018-10-18T08:59:03.950Z,40.30
2018-10-18T09:00:03.910Z,39.10
2018-10-18T09:01:03.931Z,39.70
2018-10-18T09:02:03.864Z,38.50
2018-10-18T09:03:03.839Z,39.70
2018-10-18T09:04:03.815Z,40.70
2018-10-18T09:05:03.791Z,40.90
2018-10-18T09:06:03.767Z,39.00
2018-10-18T09:07:03.805Z,40.60
2018-10-18T09:08:03.723Z,39.00
2018-10-18T09:09:03.700Z,38.60
2018-10-18T09:10:03.673Z,38.50
2018-10-18T09:11:03.650Z,38.20
2018-10-18T09:12:03.625Z,38.90
2018-10-18T09:13:03.644Z,38.00
2018-10-18T09:14:03.582Z,38.90
2018-10-18T09:15:03.557Z,39.10
2018-10-18T09:16:03.606Z,39.50
2018-10-18T09:17:03.510Z,37.30
2018-10-18T09:18:03.485Z,39.20
2018-10-18T09:19:03.482Z,38.80
2018-10-18T09:20:03.440Z,39.70
2018-10-18T09:21:03.418Z,40.30
2018-10-18T09:22:03.394Z,41.20
2018-10-18T09:23:03.373Z,40.30
2018-10-18T09:24:03.349Z,39.70
2018-10-18T09:25:03.384Z,40.50
2018-10-18T09:26:03.301Z,39.10
2018-10-18T09:27:03.278Z,40.80
2018-10-18T09:28:03.255Z,39.70
2018-10-18T09:29:03.233Z,38.90
2018-10-18T09:30:03.210Z,40.20
2018-10-18T09:31:03.225Z,39.80
2018-10-18T09:32:03.166Z,38.60
2018-10-18T09:33:03.142Z,38.40
2018-10-18T09:34:03.119Z,38.20
2018-10-18T09:35:03.095Z,37.70
2018-10-18T09:36:03.073Z,37.80
2018-10-18T09:37:03.100Z,36.20
2018-10-18T09:38:03.028Z,40.10
2018-10-18T09:39:03.006Z,38.10
2018-10-18T09:40:02.984Z,38.20
2018-10-18T09:41:03.007Z,39.70
2018-10-18T09:42:02.936Z,38.70
2018-10-18T09:43:02.952Z,37.70
2018-10-18T09:44:02.899Z,37.50
2018-10-18T09:45:02.963Z,37.80
2018-10-18T09:46:02.847Z,38.20
2018-10-18T09:47:02.825Z,37.10
2018-10-18T09:48:02.803Z,39.10
2018-10-18T09:49:02.843Z,35.50
2018-10-18T09:50:02.758Z,36.90
2018-10-18T09:51:02.735Z,38.30
2018-10-18T09:52:02.711Z,36.50
2018-10-18T09:53:02.749Z,36.50
2018-10-18T09:54:02.672Z,37.90
2018-10-18T09:55:02.670Z,37.40
2018-10-18T09:56:02.647Z,36.30
2018-10-18T09:57:02.601Z,34.80
2018-10-18T09:58:02.578Z,36.60
2018-10-18T09:59:02.554Z,36.20
2018-10-18T10:00:02.531Z,36.70
2018-10-18T10:01:02.569Z,35.70
2018-10-18T10:02:02.486Z,35.40
2018-10-18T10:03:02.463Z,36.80
2018-10-18T10:04:02.455Z,35.60
2018-10-18T10:05:02.420Z,36.80
2018-10-18T10:06:02.394Z,34.60
2018-10-18T10:07:02.408Z,35.40
2018-10-18T10:08:02.351Z,36.20
2018-10-18T10:09:02.330Z,34.80
2018-10-18T10:10:02.304Z,37.70
2018-10-18T10:11:02.282Z,37.00
2018-10-18T10:12:02.261Z,38.30
2018-10-18T10:13:02.249Z,37.60
2018-10-18T10:14:02.214Z,36.70
2018-10-18T10:15:02.190Z,36.20
2018-10-18T10:16:02.166Z,35.90
2018-10-18T10:17:02.154Z,35.80
2018-10-18T10:18:02.184Z,35.10
2018-10-18T10:19:02.113Z,34.20
2018-10-18T10:20:02.078Z,37.20
2018-10-18T10:21:02.054Z,36.70
2018-10-18T10:22:02.032Z,34.90
2018-10-18T10:23:02.008Z,35.40
2018-10-18T10:24:01.986Z,36.40
2018-10-18T10:25:02.062Z,36.60
2018-10-18T10:26:01.940Z,36.60
2018-10-18T10:27:01.918Z,36.90
2018-10-18T10:28:01.896Z,34.70
2018-10-18T10:29:01.877Z,33.10
2018-10-18T10:30:01.860Z,33.60
2018-10-18T10:31:01.912Z,32.90
2018-10-18T10:32:01.804Z,34.70
2018-10-18T10:33:01.921Z,32.50
2018-10-18T10:34:01.760Z,34.00
2018-10-18T10:35:01.806Z,33.90
2018-10-18T10:36:01.715Z,33.30
2018-10-18T10:37:01.737Z,32.90
2018-10-18T10:38:01.672Z,33.60
2018-10-18T10:39:01.702Z,33.90
2018-10-18T10:40:01.660Z,33.10
2018-10-18T10:41:01.608Z,32.50
2018-10-18T10:42:01.590Z,30.90
2018-10-18T10:43:01.652Z,32.60
2018-10-18T10:44:01.564Z,33.30
2018-10-18T10:45:01.527Z,34.00
2018-10-18T10:46:01.536Z,31.40
2018-10-18T10:47:01.470Z,29.90
2018-10-18T10:48:01.508Z,31.70
2018-10-18T10:49:01.470Z,31.90
2018-10-18T10:50:01.421Z,29.90
2018-10-18T10:51:01.426Z,30.90
2018-10-18T10:52:01.386Z,29.40
2018-10-18T10:53:01.338Z,29.30
2018-10-18T10:54:01.369Z,31.40
2018-10-18T10:55:01.291Z,29.70
2018-10-18T10:56:01.319Z,29.30
2018-10-18T10:57:01.302Z,29.20
2018-10-18T10:58:01.254Z,28.00
2018-10-18T10:59:01.275Z,28.70
2018-10-18T11:00:01.242Z,29.10
2018-10-18T11:01:01.155Z,29.10
2018-10-18T11:02:01.186Z,27.60
2018-10-18T11:03:01.132Z,28.70
2018-10-18T11:04:01.089Z,27.00
2018-10-18T11:05:01.067Z,26.30
2018-10-18T11:06:01.083Z,26.10
2018-10-18T11:07:01.029Z,24.70
2018-10-18T11:08:01.052Z,25.30
2018-10-18T11:09:01.006Z,25.20
2018-10-18T11:10:00.951Z,24.00
2018-10-18T11:11:00.930Z,22.70
2018-10-18T11:12:01.026Z,22.00
2018-10-18T11:13:00.886Z,20.90
2018-10-18T11:14:00.907Z,20.60
2018-10-18T11:15:00.880Z,21.60
2018-10-18T11:16:00.815Z,21.60
2018-10-18T11:17:00.824Z,21.60
2018-10-18T11:18:00.824Z,21.70
2018-10-18T11:19:00.747Z,21.50
2018-10-18T11:20:00.756Z,20.30
2018-10-18T11:21:00.728Z,22.70
2018-10-18T11:22:00.681Z,24.30
2018-10-18T11:23:00.655Z,23.10
2018-10-18T11:24:00.638Z,22.50
2018-10-18T11:25:00.609Z,22.80
2018-10-18T11:26:00.626Z,23.30
2018-10-18T11:27:00.599Z,22.50
2018-10-18T11:28:00.540Z,23.30
2018-10-18T11:29:00.516Z,21.90
2018-10-18T11:30:00.541Z,22.90
2018-10-18T11:31:00.470Z,22.60
2018-10-18T11:32:00.497Z,22.40
2018-10-18T11:33:00.461Z,23.70
2018-10-18T11:34:00.392Z,22.60
2018-10-18T11:35:00.368Z,22.40
2018-10-18T11:36:00.415Z,22.70
2018-10-18T11:37:00.324Z,22.30
2018-10-18T11:38:00.319Z,22.40
2018-10-18T11:39:00.279Z,21.60
2018-10-18T11:40:00.254Z,20.70
2018-10-18T11:41:00.231Z,20.80
2018-10-18T11:42:00.213Z,21.70
2018-10-18T11:43:00.192Z,22.90
2018-10-18T11:44:00.229Z,23.00
2018-10-18T11:45:00.143Z,22.80
2018-10-18T11:46:00.117Z,23.20
2018-10-18T11:47:00.095Z,23.00
2018-10-18T11:48:00.124Z,23.10
2018-10-18T11:49:00.053Z,23.20
2018-10-18T11:50:00.030Z,22.10
2018-10-18T11:51:00.003Z,23.30
2018-10-18T11:52:00.036Z,22.20
2018-10-18T11:52:59.958Z,23.60
2018-10-18T11:53:59.947Z,24.40
2018-10-18T11:54:59.911Z,22.50
2018-10-18T11:55:59.924Z,23.40
2018-10-18T11:56:59.864Z,23.70
2018-10-18T11:57:59.846Z,23.60
2018-10-18T11:58:59.836Z,23.80
2018-10-18T11:59:59.797Z,24.00
2018-10-18T12:00:59.773Z,24.40
2018-10-18T12:01:59.803Z,23.40
2018-10-18T12:02:59.727Z,24.80
2018-10-18T12:03:59.706Z,23.80
2018-10-18T12:04:59.739Z,23.50
2018-10-18T12:05:59.657Z,24.60
2018-10-18T12:06:59.667Z,23.50
2018-10-18T12:07:59.615Z,24.20
2018-10-18T12:08:59.588Z,22.80
2018-10-18T12:09:59.564Z,23.90
2018-10-18T12:10:59.556Z,25.20
2018-10-18T12:11:59.519Z,24.30
2018-10-18T12:12:59.495Z,25.70
2018-10-18T12:13:59.480Z,26.00
2018-10-18T12:14:59.449Z,26.60
2018-10-18T12:15:59.425Z,25.00
2018-10-18T12:16:59.438Z,25.80
2018-10-18T12:17:59.379Z,26.90
2018-10-18T12:18:59.372Z,27.10
2018-10-18T12:19:59.368Z,27.70
2018-10-18T12:20:59.309Z,27.50
2018-10-18T12:21:59.285Z,27.00
2018-10-18T12:22:59.296Z,28.20
2018-10-18T12:23:59.241Z,31.00
2018-10-18T12:24:59.216Z,29.20
2018-10-18T12:25:59.197Z,29.80
2018-10-18T12:26:59.219Z,28.30
2018-10-18T12:27:59.151Z,29.00
2018-10-18T12:28:59.147Z,29.30
2018-10-18T12:29:59.101Z,27.90
2018-10-18T12:30:59.088Z,27.00
2018-10-18T12:31:59.065Z,27.70
2018-10-18T12:32:59.033Z,29.20
2018-10-18T12:33:59.011Z,28.40
2018-10-18T12:34:59.001Z,27.30
2018-10-18T12:35:58.965Z,27.00
2018-10-18T12:36:58.943Z,26.00
2018-10-18T12:37:58.931Z,25.00
2018-10-18T12:38:58.898Z,25.40
2018-10-18T12:39:58.882Z,24.70
2018-10-18T12:40:58.997Z,23.10
2018-10-18T12:41:58.917Z,23.10
2018-10-18T12:42:58.809Z,25.30
2018-10-18T12:43:58.791Z,23.60
2018-10-18T12:44:58.765Z,24.30